sensor_id;sensor_type;location;lat;lon;timestamp;temperature;humidity
34985;DHT22;21190;58.750;17.004;2023-04-01T00:01:47;-3.70;99.90
34985;DHT22;21190;58.750;17.004;2023-04-01T00:04:14;-3.80;99.90
34985;DHT22;21190;58.750;17.004;2023-04-01T00:06:42;-3.90;99.90
34985;DHT22;21190;58.750;17.004;2023-04-01T00:09:09;-3.90;99.90
34985;DHT22;21190;58.750;17.004;2023-04-01T00:11:36;-3.80;99.90
34985;DHT22;21190;58.750;17.004;2023-04-01T00:14:03;-3.80;99.90
34985;DHT22;21190;58.750;17.004;2023-04-01T00:16:31;-3.80;99.90
34985;DHT22;21190;58.750;17.004;2023-04-01T00:18:57;-3.80;99.90
34985;DHT22;21190;58.750;17.004;2023-04-01T00:21:24;-3.90;99.90
34985;DHT22;21190;58.750;17.004;2023-04-01T00:23:52;-3.90;99.90
34985;DHT22;21190;58.750;17.004;2023-04-01T00:26:19;-3.90;99.90
34985;DHT22;21190;58.750;17.004;2023-04-01T00:28:48;-3.80;99.90
34985;DHT22;21190;58.750;17.004;2023-04-01T00:31:16;-3.90;99.90
34985;DHT22;21190;58.750;17.004;2023-04-01T00:33:43;-3.90;99.90
34985;DHT22;21190;58.750;17.004;2023-04-01T00:36:14;-3.80;99.90
34985;DHT22;21190;58.750;17.004;2023-04-01T00:38:42;-3.90;99.90
34985;DHT22;21190;58.750;17.004;2023-04-01T00:41:10;-3.90;99.90
34985;DHT22;21190;58.750;17.004;2023-04-01T00:43:42;-3.90;99.90
34985;DHT22;21190;58.750;17.004;2023-04-01T00:46:09;-4.00;99.90
34985;DHT22;21190;58.750;17.004;2023-04-01T00:48:41;-4.00;99.90
34985;DHT22;21190;58.750;17.004;2023-04-01T00:51:16;-4.10;99.90
34985;DHT22;21190;58.750;17.004;2023-04-01T00:53:47;-4.00;99.90
34985;DHT22;21190;58.750;17.004;2023-04-01T00:56:33;-4.00;99.90
34985;DHT22;21190;58.750;17.004;2023-04-01T00:59:08;-4.00;99.90
34985;DHT22;21190;58.750;17.004;2023-04-01T01:01:37;-4.00;99.90
34985;DHT22;21190;58.750;17.004;2023-04-01T01:04:04;-4.00;99.90
34985;DHT22;21190;58.750;17.004;2023-04-01T01:06:47;-4.00;99.90
34985;DHT22;21190;58.750;17.004;2023-04-01T01:17:23;-3.90;99.90
34985;DHT22;21190;58.750;17.004;2023-04-01T01:20:22;-4.10;99.90
34985;DHT22;21190;58.750;17.004;2023-04-01T01:31:37;-4.10;99.90
34985;DHT22;21190;58.750;17.004;2023-04-01T01:36:32;-4.10;99.90
34985;DHT22;21190;58.750;17.004;2023-04-01T01:39:05;-4.20;99.90
34985;DHT22;21190;58.750;17.004;2023-04-01T01:41:35;-4.10;99.90
34985;DHT22;21190;58.750;17.004;2023-04-01T01:44:04;-4.20;99.90
34985;DHT22;21190;58.750;17.004;2023-04-01T01:46:33;-4.20;99.90
34985;DHT22;21190;58.750;17.004;2023-04-01T01:49:02;-4.20;99.90
34985;DHT22;21190;58.750;17.004;2023-04-01T01:51:30;-4.20;99.90
34985;DHT22;21190;58.750;17.004;2023-04-01T01:53:57;-4.20;99.90
34985;DHT22;21190;58.750;17.004;2023-04-01T01:56:26;-4.20;99.90
34985;DHT22;21190;58.750;17.004;2023-04-01T01:58:59;-4.10;99.90
34985;DHT22;21190;58.750;17.004;2023-04-01T02:01:29;-4.10;99.90
34985;DHT22;21190;58.750;17.004;2023-04-01T02:03:57;-4.10;99.90
34985;DHT22;21190;58.750;17.004;2023-04-01T02:06:28;-4.10;99.90
34985;DHT22;21190;58.750;17.004;2023-04-01T02:08:59;-4.10;99.90
34985;DHT22;21190;58.750;17.004;2023-04-01T02:11:32;-4.10;99.90
34985;DHT22;21190;58.750;17.004;2023-04-01T02:14:10;-4.00;99.90
34985;DHT22;21190;58.750;17.004;2023-04-01T02:16:46;-4.10;99.90
34985;DHT22;21190;58.750;17.004;2023-04-01T02:19:17;-4.10;99.90
34985;DHT22;21190;58.750;17.004;2023-04-01T02:21:56;-4.10;99.90
34985;DHT22;21190;58.750;17.004;2023-04-01T02:24:25;-4.10;99.90
34985;DHT22;21190;58.750;17.004;2023-04-01T02:26:53;-4.10;99.90
34985;DHT22;21190;58.750;17.004;2023-04-01T02:29:24;-4.10;99.90
34985;DHT22;21190;58.750;17.004;2023-04-01T02:31:54;-4.10;99.90
34985;DHT22;21190;58.750;17.004;2023-04-01T02:34:22;-4.00;99.90
34985;DHT22;21190;58.750;17.004;2023-04-01T02:36:50;-4.10;99.90
34985;DHT22;21190;58.750;17.004;2023-04-01T02:39:18;-4.20;99.90
34985;DHT22;21190;58.750;17.004;2023-04-01T02:41:45;-4.20;99.90
34985;DHT22;21190;58.750;17.004;2023-04-01T02:44:14;-4.10;99.90
34985;DHT22;21190;58.750;17.004;2023-04-01T02:46:41;-4.00;99.90
34985;DHT22;21190;58.750;17.004;2023-04-01T02:49:09;-4.10;99.90
34985;DHT22;21190;58.750;17.004;2023-04-01T02:51:36;-4.10;99.90
34985;DHT22;21190;58.750;17.004;2023-04-01T02:54:03;-4.10;99.90
34985;DHT22;21190;58.750;17.004;2023-04-01T02:56:29;-4.10;99.90
34985;DHT22;21190;58.750;17.004;2023-04-01T02:58:56;-4.10;99.90
34985;DHT22;21190;58.750;17.004;2023-04-01T03:01:23;-4.10;99.90
34985;DHT22;21190;58.750;17.004;2023-04-01T03:03:50;-4.00;99.90
34985;DHT22;21190;58.750;17.004;2023-04-01T03:06:17;-4.00;99.90
34985;DHT22;21190;58.750;17.004;2023-04-01T03:08:44;-4.00;99.90
34985;DHT22;21190;58.750;17.004;2023-04-01T03:11:12;-4.10;99.90
34985;DHT22;21190;58.750;17.004;2023-04-01T03:13:39;-4.10;99.90
34985;DHT22;21190;58.750;17.004;2023-04-01T03:16:06;-4.10;99.90
34985;DHT22;21190;58.750;17.004;2023-04-01T03:18:33;-4.10;99.90
34985;DHT22;21190;58.750;17.004;2023-04-01T03:21:16;-4.10;99.90
34985;DHT22;21190;58.750;17.004;2023-04-01T03:23:43;-4.20;99.90
34985;DHT22;21190;58.750;17.004;2023-04-01T03:26:10;-4.20;99.90
34985;DHT22;21190;58.750;17.004;2023-04-01T03:28:37;-4.20;99.90
34985;DHT22;21190;58.750;17.004;2023-04-01T03:31:05;-4.30;99.90
34985;DHT22;21190;58.750;17.004;2023-04-01T03:33:32;-4.30;99.90
34985;DHT22;21190;58.750;17.004;2023-04-01T03:35:59;-4.20;99.90
34985;DHT22;21190;58.750;17.004;2023-04-01T03:38:26;-4.30;99.90
34985;DHT22;21190;58.750;17.004;2023-04-01T03:40:53;-4.30;99.90
34985;DHT22;21190;58.750;17.004;2023-04-01T03:43:20;-4.40;99.90
34985;DHT22;21190;58.750;17.004;2023-04-01T03:45:50;-4.50;99.90
34985;DHT22;21190;58.750;17.004;2023-04-01T03:48:18;-4.60;99.90
34985;DHT22;21190;58.750;17.004;2023-04-01T03:50:45;-4.70;99.90
34985;DHT22;21190;58.750;17.004;2023-04-01T03:53:12;-4.80;99.90
34985;DHT22;21190;58.750;17.004;2023-04-01T03:55:39;-5.10;99.90
34985;DHT22;21190;58.750;17.004;2023-04-01T03:58:07;-5.20;99.90
34985;DHT22;21190;58.750;17.004;2023-04-01T04:00:34;-5.30;99.90
34985;DHT22;21190;58.750;17.004;2023-04-01T04:03:01;-5.30;99.90
34985;DHT22;21190;58.750;17.004;2023-04-01T04:05:28;-5.50;99.90
34985;DHT22;21190;58.750;17.004;2023-04-01T04:07:55;-5.50;99.90
34985;DHT22;21190;58.750;17.004;2023-04-01T04:10:22;-5.60;99.90
34985;DHT22;21190;58.750;17.004;2023-04-01T04:12:52;-5.70;99.90
34985;DHT22;21190;58.750;17.004;2023-04-01T04:15:19;-5.80;99.90
34985;DHT22;21190;58.750;17.004;2023-04-01T04:17:46;-5.80;99.90
34985;DHT22;21190;58.750;17.004;2023-04-01T04:20:14;-5.90;99.90
34985;DHT22;21190;58.750;17.004;2023-04-01T04:22:41;-5.90;99.90
34985;DHT22;21190;58.750;17.004;2023-04-01T04:25:08;-6.00;99.90
34985;DHT22;21190;58.750;17.004;2023-04-01T04:27:35;-6.00;99.90
34985;DHT22;21190;58.750;17.004;2023-04-01T04:30:03;-6.20;99.90
34985;DHT22;21190;58.750;17.004;2023-04-01T04:32:30;-6.20;99.90
34985;DHT22;21190;58.750;17.004;2023-04-01T04:34:57;-6.30;99.90
34985;DHT22;21190;58.750;17.004;2023-04-01T04:37:24;-6.40;99.90
34985;DHT22;21190;58.750;17.004;2023-04-01T04:39:52;-6.40;99.90
34985;DHT22;21190;58.750;17.004;2023-04-01T04:42:19;-6.40;99.90
34985;DHT22;21190;58.750;17.004;2023-04-01T04:44:46;-6.30;99.90
34985;DHT22;21190;58.750;17.004;2023-04-01T04:47:13;-6.10;99.90
34985;DHT22;21190;58.750;17.004;2023-04-01T04:49:40;-6.10;99.90
34985;DHT22;21190;58.750;17.004;2023-04-01T04:52:07;-6.00;99.90
34985;DHT22;21190;58.750;17.004;2023-04-01T04:54:34;-6.00;99.90
34985;DHT22;21190;58.750;17.004;2023-04-01T04:57:01;-6.10;99.90
34985;DHT22;21190;58.750;17.004;2023-04-01T04:59:28;-6.20;99.90
34985;DHT22;21190;58.750;17.004;2023-04-01T05:01:55;-6.20;99.90
34985;DHT22;21190;58.750;17.004;2023-04-01T05:04:22;-6.40;99.90
34985;DHT22;21190;58.750;17.004;2023-04-01T05:06:49;-6.40;99.90
34985;DHT22;21190;58.750;17.004;2023-04-01T05:09:16;-6.30;99.90
34985;DHT22;21190;58.750;17.004;2023-04-01T05:11:42;-5.90;99.90
34985;DHT22;21190;58.750;17.004;2023-04-01T05:14:14;-5.50;99.90
34985;DHT22;21190;58.750;17.004;2023-04-01T05:16:41;-5.30;99.90
34985;DHT22;21190;58.750;17.004;2023-04-01T05:19:09;-5.00;99.90
34985;DHT22;21190;58.750;17.004;2023-04-01T05:21:36;-4.90;99.90
34985;DHT22;21190;58.750;17.004;2023-04-01T05:24:03;-4.80;99.90
34985;DHT22;21190;58.750;17.004;2023-04-01T05:26:33;-4.70;99.90
34985;DHT22;21190;58.750;17.004;2023-04-01T05:29:00;-4.60;99.90
34985;DHT22;21190;58.750;17.004;2023-04-01T05:31:27;-4.60;99.90
34985;DHT22;21190;58.750;17.004;2023-04-01T05:33:55;-4.40;99.90
34985;DHT22;21190;58.750;17.004;2023-04-01T05:36:22;-4.40;99.90
34985;DHT22;21190;58.750;17.004;2023-04-01T05:38:49;-4.40;99.90
34985;DHT22;21190;58.750;17.004;2023-04-01T05:41:17;-4.20;99.90
34985;DHT22;21190;58.750;17.004;2023-04-01T05:43:44;-4.10;99.90
34985;DHT22;21190;58.750;17.004;2023-04-01T05:46:11;-4.00;99.90
34985;DHT22;21190;58.750;17.004;2023-04-01T05:48:38;-4.00;99.90
34985;DHT22;21190;58.750;17.004;2023-04-01T05:51:05;-3.90;99.90
34985;DHT22;21190;58.750;17.004;2023-04-01T05:53:32;-3.90;99.90
34985;DHT22;21190;58.750;17.004;2023-04-01T05:56:02;-3.80;99.90
34985;DHT22;21190;58.750;17.004;2023-04-01T05:58:30;-3.80;99.90
34985;DHT22;21190;58.750;17.004;2023-04-01T06:01:05;-3.70;99.90
34985;DHT22;21190;58.750;17.004;2023-04-01T06:03:39;-3.60;99.90
34985;DHT22;21190;58.750;17.004;2023-04-01T06:06:14;-3.50;99.90
34985;DHT22;21190;58.750;17.004;2023-04-01T06:08:43;-3.50;99.90
34985;DHT22;21190;58.750;17.004;2023-04-01T06:14:10;-3.40;99.90
34985;DHT22;21190;58.750;17.004;2023-04-01T06:19:50;-3.20;99.90
34985;DHT22;21190;58.750;17.004;2023-04-01T06:22:35;-3.30;99.90
34985;DHT22;21190;58.750;17.004;2023-04-01T06:25:35;-3.20;99.90
34985;DHT22;21190;58.750;17.004;2023-04-01T06:30:45;-3.00;99.90
34985;DHT22;21190;58.750;17.004;2023-04-01T06:33:20;-3.00;99.90
34985;DHT22;21190;58.750;17.004;2023-04-01T06:41:14;-2.70;99.90
34985;DHT22;21190;58.750;17.004;2023-04-01T06:46:47;-2.50;99.90
34985;DHT22;21190;58.750;17.004;2023-04-01T06:49:21;-2.50;99.90
34985;DHT22;21190;58.750;17.004;2023-04-01T06:54:28;-2.40;99.90
34985;DHT22;21190;58.750;17.004;2023-04-01T06:57:02;-2.40;99.90
34985;DHT22;21190;58.750;17.004;2023-04-01T06:59:32;-2.30;99.90
34985;DHT22;21190;58.750;17.004;2023-04-01T07:02:19;-2.20;99.90
34985;DHT22;21190;58.750;17.004;2023-04-01T07:04:51;-2.10;99.90
34985;DHT22;21190;58.750;17.004;2023-04-01T07:07:38;-1.90;99.90
34985;DHT22;21190;58.750;17.004;2023-04-01T07:10:15;-1.90;99.90
34985;DHT22;21190;58.750;17.004;2023-04-01T07:12:47;-1.80;99.90
34985;DHT22;21190;58.750;17.004;2023-04-01T07:15:20;-1.70;99.90
34985;DHT22;21190;58.750;17.004;2023-04-01T07:17:53;-1.70;99.90
34985;DHT22;21190;58.750;17.004;2023-04-01T07:20:32;-1.60;99.90
34985;DHT22;21190;58.750;17.004;2023-04-01T07:25:48;-1.50;99.90
34985;DHT22;21190;58.750;17.004;2023-04-01T07:28:17;-1.40;99.90
34985;DHT22;21190;58.750;17.004;2023-04-01T07:31:07;-1.40;99.90
34985;DHT22;21190;58.750;17.004;2023-04-01T07:33:46;-1.30;99.90
34985;DHT22;21190;58.750;17.004;2023-04-01T07:36:50;-1.10;99.90
34985;DHT22;21190;58.750;17.004;2023-04-01T07:50:25;-0.80;99.90
34985;DHT22;21190;58.750;17.004;2023-04-01T07:53:03;-0.70;99.90
34985;DHT22;21190;58.750;17.004;2023-04-01T07:55:55;-0.60;99.90
34985;DHT22;21190;58.750;17.004;2023-04-01T08:04:41;-0.20;99.90
34985;DHT22;21190;58.750;17.004;2023-04-01T08:07:18;-0.30;99.90
34985;DHT22;21190;58.750;17.004;2023-04-01T08:10:11;-0.10;99.90
34985;DHT22;21190;58.750;17.004;2023-04-01T08:15:28;0.10;99.90
34985;DHT22;21190;58.750;17.004;2023-04-01T08:20:39;0.10;99.90
34985;DHT22;21190;58.750;17.004;2023-04-01T08:23:40;0.10;99.90
34985;DHT22;21190;58.750;17.004;2023-04-01T08:29:09;0.20;99.90
34985;DHT22;21190;58.750;17.004;2023-04-01T08:31:55;0.30;99.90
34985;DHT22;21190;58.750;17.004;2023-04-01T08:34:33;0.40;99.90
34985;DHT22;21190;58.750;17.004;2023-04-01T08:37:05;0.50;99.90
34985;DHT22;21190;58.750;17.004;2023-04-01T08:39:46;0.50;99.90
34985;DHT22;21190;58.750;17.004;2023-04-01T08:42:43;0.70;99.90
34985;DHT22;21190;58.750;17.004;2023-04-01T08:57:25;1.00;99.90
34985;DHT22;21190;58.750;17.004;2023-04-01T09:16:42;1.40;99.90
34985;DHT22;21190;58.750;17.004;2023-04-01T09:27:56;1.70;99.90
34985;DHT22;21190;58.750;17.004;2023-04-01T09:30:52;1.70;99.90
34985;DHT22;21190;58.750;17.004;2023-04-01T09:38:59;1.90;99.90
34985;DHT22;21190;58.750;17.004;2023-04-01T09:41:32;1.90;99.90
34985;DHT22;21190;58.750;17.004;2023-04-01T10:03:54;2.30;99.90
34985;DHT22;21190;58.750;17.004;2023-04-01T10:06:38;2.40;99.90
34985;DHT22;21190;58.750;17.004;2023-04-01T10:37:03;2.90;99.90
34985;DHT22;21190;58.750;17.004;2023-04-01T10:45:37;3.10;99.90
34985;DHT22;21190;58.750;17.004;2023-04-01T10:51:09;3.10;99.90
34985;DHT22;21190;58.750;17.004;2023-04-01T11:13:49;3.50;99.90
34985;DHT22;21190;58.750;17.004;2023-04-01T11:22:10;3.60;99.90
34985;DHT22;21190;58.750;17.004;2023-04-01T11:33:44;3.80;99.90
34985;DHT22;21190;58.750;17.004;2023-04-01T11:36:19;3.80;99.90
34985;DHT22;21190;58.750;17.004;2023-04-01T11:41:49;3.90;99.90
34985;DHT22;21190;58.750;17.004;2023-04-01T11:44:27;3.90;99.90
34985;DHT22;21190;58.750;17.004;2023-04-01T11:55:35;4.00;99.90
34985;DHT22;21190;58.750;17.004;2023-04-01T12:01:26;4.00;99.90
34985;DHT22;21190;58.750;17.004;2023-04-01T12:09:36;4.20;99.90
34985;DHT22;21190;58.750;17.004;2023-04-01T12:28:18;4.30;99.90
34985;DHT22;21190;58.750;17.004;2023-04-01T12:47:47;4.90;99.90
34985;DHT22;21190;58.750;17.004;2023-04-01T12:55:49;4.80;99.90
34985;DHT22;21190;58.750;17.004;2023-04-01T13:01:22;4.80;99.90
34985;DHT22;21190;58.750;17.004;2023-04-01T13:04:05;4.70;99.90
34985;DHT22;21190;58.750;17.004;2023-04-01T13:07:03;4.70;99.90
34985;DHT22;21190;58.750;17.004;2023-04-01T13:09:45;4.80;99.90
34985;DHT22;21190;58.750;17.004;2023-04-01T13:15:41;4.80;99.90
34985;DHT22;21190;58.750;17.004;2023-04-01T13:18:21;4.80;99.90
34985;DHT22;21190;58.750;17.004;2023-04-01T13:27:00;5.00;99.90
34985;DHT22;21190;58.750;17.004;2023-04-01T13:29:39;4.90;99.90
34985;DHT22;21190;58.750;17.004;2023-04-01T13:38:59;5.00;99.90
34985;DHT22;21190;58.750;17.004;2023-04-01T13:44:48;5.00;99.90
34985;DHT22;21190;58.750;17.004;2023-04-01T13:47:24;5.00;99.90
34985;DHT22;21190;58.750;17.004;2023-04-01T14:01:40;5.10;99.90
34985;DHT22;21190;58.750;17.004;2023-04-01T14:12:30;5.20;99.90
34985;DHT22;21190;58.750;17.004;2023-04-01T14:26:56;5.10;99.90
34985;DHT22;21190;58.750;17.004;2023-04-01T14:30:28;5.10;99.90
34985;DHT22;21190;58.750;17.004;2023-04-01T14:49:52;5.10;99.90
34985;DHT22;21190;58.750;17.004;2023-04-01T14:52:32;5.10;99.90
34985;DHT22;21190;58.750;17.004;2023-04-01T14:55:02;5.10;99.90
34985;DHT22;21190;58.750;17.004;2023-04-01T14:57:37;5.10;99.90
34985;DHT22;21190;58.750;17.004;2023-04-01T15:03:05;5.00;99.90
34985;DHT22;21190;58.750;17.004;2023-04-01T15:06:27;5.00;99.90
34985;DHT22;21190;58.750;17.004;2023-04-01T15:08:52;5.00;99.90
34985;DHT22;21190;58.750;17.004;2023-04-01T15:11:41;5.00;99.90
34985;DHT22;21190;58.750;17.004;2023-04-01T15:14:46;5.00;99.90
34985;DHT22;21190;58.750;17.004;2023-04-01T15:26:21;4.80;99.90
34985;DHT22;21190;58.750;17.004;2023-04-01T15:28:54;4.80;99.90
34985;DHT22;21190;58.750;17.004;2023-04-01T15:42:58;4.70;99.90
34985;DHT22;21190;58.750;17.004;2023-04-01T15:46:08;4.70;99.90
34985;DHT22;21190;58.750;17.004;2023-04-01T15:57:13;4.50;99.90
34985;DHT22;21190;58.750;17.004;2023-04-01T16:02:34;4.80;99.90
34985;DHT22;21190;58.750;17.004;2023-04-01T16:14:07;4.30;99.90
34985;DHT22;21190;58.750;17.004;2023-04-01T16:19:41;4.20;99.90
34985;DHT22;21190;58.750;17.004;2023-04-01T16:25:19;4.20;99.90
34985;DHT22;21190;58.750;17.004;2023-04-01T16:28:25;4.20;99.90
34985;DHT22;21190;58.750;17.004;2023-04-01T16:31:14;4.10;99.90
34985;DHT22;21190;58.750;17.004;2023-04-01T16:34:08;4.20;99.90
34985;DHT22;21190;58.750;17.004;2023-04-01T16:36:53;4.20;99.90
34985;DHT22;21190;58.750;17.004;2023-04-01T16:39:52;4.00;99.90
34985;DHT22;21190;58.750;17.004;2023-04-01T16:45:32;4.00;99.90
34985;DHT22;21190;58.750;17.004;2023-04-01T16:48:06;3.90;99.90
34985;DHT22;21190;58.750;17.004;2023-04-01T16:51:09;3.90;99.90
34985;DHT22;21190;58.750;17.004;2023-04-01T16:53:44;3.90;99.90
34985;DHT22;21190;58.750;17.004;2023-04-01T16:56:27;3.80;99.90
34985;DHT22;21190;58.750;17.004;2023-04-01T17:02:08;3.70;99.90
34985;DHT22;21190;58.750;17.004;2023-04-01T17:10:32;3.60;99.90
34985;DHT22;21190;58.750;17.004;2023-04-01T17:19:05;3.30;99.90
34985;DHT22;21190;58.750;17.004;2023-04-01T17:21:47;3.40;99.90
34985;DHT22;21190;58.750;17.004;2023-04-01T17:27:18;3.50;99.90
34985;DHT22;21190;58.750;17.004;2023-04-01T17:30:18;3.40;99.90
34985;DHT22;21190;58.750;17.004;2023-04-01T17:35:58;3.10;99.90
34985;DHT22;21190;58.750;17.004;2023-04-01T17:41:25;2.90;99.90
34985;DHT22;21190;58.750;17.004;2023-04-01T17:49:42;2.80;99.90
34985;DHT22;21190;58.750;17.004;2023-04-01T17:55:15;2.60;99.90
34985;DHT22;21190;58.750;17.004;2023-04-01T18:00:37;2.50;99.90
34985;DHT22;21190;58.750;17.004;2023-04-01T18:03:55;2.50;99.90
34985;DHT22;21190;58.750;17.004;2023-04-01T18:09:28;2.40;99.90
34985;DHT22;21190;58.750;17.004;2023-04-01T18:17:45;2.30;99.90
34985;DHT22;21190;58.750;17.004;2023-04-01T18:20:43;2.30;99.90
34985;DHT22;21190;58.750;17.004;2023-04-01T18:26:11;2.20;99.90
34985;DHT22;21190;58.750;17.004;2023-04-01T18:28:54;2.20;99.90
34985;DHT22;21190;58.750;17.004;2023-04-01T18:31:26;2.20;99.90
34985;DHT22;21190;58.750;17.004;2023-04-01T18:34:18;2.10;99.90
34985;DHT22;21190;58.750;17.004;2023-04-01T18:36:48;2.00;99.90
34985;DHT22;21190;58.750;17.004;2023-04-01T18:39:23;2.00;99.90
34985;DHT22;21190;58.750;17.004;2023-04-01T18:50:55;1.80;99.90
34985;DHT22;21190;58.750;17.004;2023-04-01T18:56:06;1.70;99.90
34985;DHT22;21190;58.750;17.004;2023-04-01T18:58:50;1.70;99.90
34985;DHT22;21190;58.750;17.004;2023-04-01T19:06:45;1.60;99.90
34985;DHT22;21190;58.750;17.004;2023-04-01T19:09:26;1.60;99.90
34985;DHT22;21190;58.750;17.004;2023-04-01T19:17:45;1.50;99.90
34985;DHT22;21190;58.750;17.004;2023-04-01T19:20:32;1.60;99.90
34985;DHT22;21190;58.750;17.004;2023-04-01T19:26:16;1.40;99.90
34985;DHT22;21190;58.750;17.004;2023-04-01T19:28:55;1.30;99.90
34985;DHT22;21190;58.750;17.004;2023-04-01T19:37:08;1.20;99.90
34985;DHT22;21190;58.750;17.004;2023-04-01T19:45:14;1.00;99.90
34985;DHT22;21190;58.750;17.004;2023-04-01T19:50:42;1.00;99.90
34985;DHT22;21190;58.750;17.004;2023-04-01T19:53:31;0.90;99.90
34985;DHT22;21190;58.750;17.004;2023-04-01T19:56:19;0.90;99.90
34985;DHT22;21190;58.750;17.004;2023-04-01T20:01:44;1.00;99.90
34985;DHT22;21190;58.750;17.004;2023-04-01T20:04:17;0.90;99.90
34985;DHT22;21190;58.750;17.004;2023-04-01T20:07:11;0.80;99.90
34985;DHT22;21190;58.750;17.004;2023-04-01T20:09:47;0.80;99.90
34985;DHT22;21190;58.750;17.004;2023-04-01T20:15:04;0.60;99.90
34985;DHT22;21190;58.750;17.004;2023-04-01T20:17:46;0.60;99.90
34985;DHT22;21190;58.750;17.004;2023-04-01T20:20:18;0.60;99.90
34985;DHT22;21190;58.750;17.004;2023-04-01T20:22:55;0.50;99.90
34985;DHT22;21190;58.750;17.004;2023-04-01T20:25:48;0.50;99.90
34985;DHT22;21190;58.750;17.004;2023-04-01T20:31:10;0.50;99.90
34985;DHT22;21190;58.750;17.004;2023-04-01T20:33:53;0.50;99.90
34985;DHT22;21190;58.750;17.004;2023-04-01T20:39:31;0.40;99.90
34985;DHT22;21190;58.750;17.004;2023-04-01T20:58:23;0.10;99.90
34985;DHT22;21190;58.750;17.004;2023-04-01T21:06:27;-0.10;99.90
34985;DHT22;21190;58.750;17.004;2023-04-01T21:20:06;-0.20;99.90
34985;DHT22;21190;58.750;17.004;2023-04-01T21:33:37;-0.40;99.90
34985;DHT22;21190;58.750;17.004;2023-04-01T21:39:08;-0.20;99.90
34985;DHT22;21190;58.750;17.004;2023-04-01T21:42:07;-0.30;99.90
34985;DHT22;21190;58.750;17.004;2023-04-01T22:04:51;-0.50;99.90
34985;DHT22;21190;58.750;17.004;2023-04-01T22:13:50;-0.70;99.90
34985;DHT22;21190;58.750;17.004;2023-04-01T22:25:03;-0.60;99.90
34985;DHT22;21190;58.750;17.004;2023-04-01T22:30:18;-0.80;99.90
34985;DHT22;21190;58.750;17.004;2023-04-01T22:32:50;-0.90;99.90
34985;DHT22;21190;58.750;17.004;2023-04-01T22:35:33;-0.90;99.90
34985;DHT22;21190;58.750;17.004;2023-04-01T22:38:29;-0.90;99.90
34985;DHT22;21190;58.750;17.004;2023-04-01T22:41:14;-0.90;99.90
34985;DHT22;21190;58.750;17.004;2023-04-01T22:43:44;-0.90;99.90
34985;DHT22;21190;58.750;17.004;2023-04-01T22:51:47;-0.90;99.90
34985;DHT22;21190;58.750;17.004;2023-04-01T22:54:34;-1.00;99.90
34985;DHT22;21190;58.750;17.004;2023-04-01T23:02:39;-1.20;99.90
34985;DHT22;21190;58.750;17.004;2023-04-01T23:05:15;-1.20;99.90
34985;DHT22;21190;58.750;17.004;2023-04-01T23:10:26;-1.20;99.90
34985;DHT22;21190;58.750;17.004;2023-04-01T23:12:59;-1.20;99.90
34985;DHT22;21190;58.750;17.004;2023-04-01T23:15:28;-1.30;99.90
34985;DHT22;21190;58.750;17.004;2023-04-01T23:18:12;-1.20;99.90
34985;DHT22;21190;58.750;17.004;2023-04-01T23:23:26;-1.30;99.90
34985;DHT22;21190;58.750;17.004;2023-04-01T23:26:13;-1.30;99.90
34985;DHT22;21190;58.750;17.004;2023-04-01T23:29:03;-1.30;99.90
34985;DHT22;21190;58.750;17.004;2023-04-01T23:31:39;-1.30;99.90
34985;DHT22;21190;58.750;17.004;2023-04-01T23:36:51;-1.40;99.90
34985;DHT22;21190;58.750;17.004;2023-04-01T23:39:32;-1.40;99.90
34985;DHT22;21190;58.750;17.004;2023-04-01T23:42:06;-1.30;99.90
34985;DHT22;21190;58.750;17.004;2023-04-01T23:44:35;-1.40;99.90
34985;DHT22;21190;58.750;17.004;2023-04-01T23:47:03;-1.50;99.90
34985;DHT22;21190;58.750;17.004;2023-04-01T23:49:37;-1.50;99.90
34985;DHT22;21190;58.750;17.004;2023-04-01T23:52:19;-1.60;99.90
34985;DHT22;21190;58.750;17.004;2023-04-01T23:54:51;-1.60;99.90
34985;DHT22;21190;58.750;17.004;2023-04-01T23:57:23;-1.60;99.90
